sensor_id;sensor_type;location;lat;lon;timestamp;P1;durP1;ratioP1;P2;durP2;ratioP2
10432;SDS011;5263;48.680;9.004;2023-06-01T00:00:49;3.40;;;1.73;;
10432;SDS011;5263;48.680;9.004;2023-06-01T00:03:15;3.37;;;1.73;;
10432;SDS011;5263;48.680;9.004;2023-06-01T00:05:40;5.17;;;1.70;;
10432;SDS011;5263;48.680;9.004;2023-06-01T00:08:06;5.80;;;1.50;;
10432;SDS011;5263;48.680;9.004;2023-06-01T00:10:32;3.80;;;1.73;;
10432;SDS011;5263;48.680;9.004;2023-06-01T00:12:58;2.93;;;1.60;;
10432;SDS011;5263;48.680;9.004;2023-06-01T00:15:23;4.97;;;1.73;;
10432;SDS011;5263;48.680;9.004;2023-06-01T00:17:49;4.13;;;1.83;;
10432;SDS011;5263;48.680;9.004;2023-06-01T00:20:16;1.87;;;1.77;;
10432;SDS011;5263;48.680;9.004;2023-06-01T00:22:42;5.73;;;2.17;;
10432;SDS011;5263;48.680;9.004;2023-06-01T00:25:09;4.10;;;1.80;;
10432;SDS011;5263;48.680;9.004;2023-06-01T00:27:35;4.40;;;2.07;;
10432;SDS011;5263;48.680;9.004;2023-06-01T00:30:01;2.23;;;1.30;;
10432;SDS011;5263;48.680;9.004;2023-06-01T00:32:27;3.10;;;1.63;;
10432;SDS011;5263;48.680;9.004;2023-06-01T00:34:52;5.87;;;1.97;;
10432;SDS011;5263;48.680;9.004;2023-06-01T00:37:18;3.83;;;1.50;;
10432;SDS011;5263;48.680;9.004;2023-06-01T00:39:44;3.73;;;1.70;;
10432;SDS011;5263;48.680;9.004;2023-06-01T00:42:09;3.47;;;1.60;;
10432;SDS011;5263;48.680;9.004;2023-06-01T00:44:35;2.00;;;1.30;;
10432;SDS011;5263;48.680;9.004;2023-06-01T00:47:00;4.77;;;2.30;;
10432;SDS011;5263;48.680;9.004;2023-06-01T00:49:26;3.50;;;1.83;;
10432;SDS011;5263;48.680;9.004;2023-06-01T00:51:52;6.77;;;1.67;;
10432;SDS011;5263;48.680;9.004;2023-06-01T00:54:18;3.37;;;2.13;;
10432;SDS011;5263;48.680;9.004;2023-06-01T00:56:45;6.00;;;1.60;;
10432;SDS011;5263;48.680;9.004;2023-06-01T00:59:11;2.93;;;1.33;;
10432;SDS011;5263;48.680;9.004;2023-06-01T01:01:37;4.23;;;1.70;;
10432;SDS011;5263;48.680;9.004;2023-06-01T01:04:03;10.57;;;2.07;;
10432;SDS011;5263;48.680;9.004;2023-06-01T01:12:14;4.10;;;1.50;;
10432;SDS011;5263;48.680;9.004;2023-06-01T01:17:48;2.87;;;1.70;;
10432;SDS011;5263;48.680;9.004;2023-06-01T01:20:22;1.70;;;1.53;;
10432;SDS011;5263;48.680;9.004;2023-06-01T01:30:59;5.27;;;1.70;;
10432;SDS011;5263;48.680;9.004;2023-06-01T01:33:27;5.07;;;1.60;;
10432;SDS011;5263;48.680;9.004;2023-06-01T01:35:53;4.67;;;1.63;;
10432;SDS011;5263;48.680;9.004;2023-06-01T01:38:20;4.00;;;1.80;;
10432;SDS011;5263;48.680;9.004;2023-06-01T01:40:46;2.63;;;1.87;;
10432;SDS011;5263;48.680;9.004;2023-06-01T01:43:11;3.13;;;1.63;;
10432;SDS011;5263;48.680;9.004;2023-06-01T01:45:37;3.90;;;1.80;;
10432;SDS011;5263;48.680;9.004;2023-06-01T01:50:44;2.17;;;1.83;;
10432;SDS011;5263;48.680;9.004;2023-06-01T01:53:17;4.27;;;1.47;;
10432;SDS011;5263;48.680;9.004;2023-06-01T01:55:44;3.27;;;1.70;;
10432;SDS011;5263;48.680;9.004;2023-06-01T01:58:13;3.67;;;1.53;;
10432;SDS011;5263;48.680;9.004;2023-06-01T02:00:40;2.93;;;1.47;;
10432;SDS011;5263;48.680;9.004;2023-06-01T02:03:14;3.23;;;1.70;;
10432;SDS011;5263;48.680;9.004;2023-06-01T02:05:43;2.03;;;1.77;;
10432;SDS011;5263;48.680;9.004;2023-06-01T02:08:10;2.87;;;1.83;;
10432;SDS011;5263;48.680;9.004;2023-06-01T02:10:36;5.27;;;2.10;;
10432;SDS011;5263;48.680;9.004;2023-06-01T02:13:02;5.33;;;1.80;;
10432;SDS011;5263;48.680;9.004;2023-06-01T02:15:28;3.73;;;1.73;;
10432;SDS011;5263;48.680;9.004;2023-06-01T02:17:54;4.83;;;1.73;;
10432;SDS011;5263;48.680;9.004;2023-06-01T02:20:19;2.73;;;2.00;;
10432;SDS011;5263;48.680;9.004;2023-06-01T02:22:45;3.80;;;1.87;;
10432;SDS011;5263;48.680;9.004;2023-06-01T02:25:11;4.27;;;1.80;;
10432;SDS011;5263;48.680;9.004;2023-06-01T02:27:36;2.83;;;1.80;;
10432;SDS011;5263;48.680;9.004;2023-06-01T02:30:02;2.87;;;1.93;;
10432;SDS011;5263;48.680;9.004;2023-06-01T02:32:31;4.27;;;2.30;;
10432;SDS011;5263;48.680;9.004;2023-06-01T02:34:57;3.60;;;1.87;;
10432;SDS011;5263;48.680;9.004;2023-06-01T02:37:23;3.43;;;1.50;;
10432;SDS011;5263;48.680;9.004;2023-06-01T02:39:48;7.37;;;2.30;;
10432;SDS011;5263;48.680;9.004;2023-06-01T02:42:14;6.87;;;2.43;;
10432;SDS011;5263;48.680;9.004;2023-06-01T02:44:40;5.10;;;1.90;;
10432;SDS011;5263;48.680;9.004;2023-06-01T02:47:05;4.50;;;2.10;;
10432;SDS011;5263;48.680;9.004;2023-06-01T02:49:32;5.83;;;2.20;;
10432;SDS011;5263;48.680;9.004;2023-06-01T02:51:57;4.57;;;2.40;;
10432;SDS011;5263;48.680;9.004;2023-06-01T02:54:23;3.77;;;2.87;;
10432;SDS011;5263;48.680;9.004;2023-06-01T02:56:48;5.63;;;3.50;;
10432;SDS011;5263;48.680;9.004;2023-06-01T02:59:14;10.63;;;2.20;;
10432;SDS011;5263;48.680;9.004;2023-06-01T03:01:39;7.97;;;2.30;;
10432;SDS011;5263;48.680;9.004;2023-06-01T03:04:05;7.33;;;2.30;;
10432;SDS011;5263;48.680;9.004;2023-06-01T03:06:32;4.67;;;2.13;;
10432;SDS011;5263;48.680;9.004;2023-06-01T03:09:02;6.70;;;2.00;;
10432;SDS011;5263;48.680;9.004;2023-06-01T03:11:28;5.80;;;2.77;;
10432;SDS011;5263;48.680;9.004;2023-06-01T03:13:54;4.33;;;2.87;;
10432;SDS011;5263;48.680;9.004;2023-06-01T03:16:22;4.13;;;2.30;;
10432;SDS011;5263;48.680;9.004;2023-06-01T03:18:48;8.43;;;2.30;;
10432;SDS011;5263;48.680;9.004;2023-06-01T03:21:13;4.33;;;2.23;;
10432;SDS011;5263;48.680;9.004;2023-06-01T03:23:41;5.77;;;2.10;;
10432;SDS011;5263;48.680;9.004;2023-06-01T03:26:09;3.90;;;1.53;;
10432;SDS011;5263;48.680;9.004;2023-06-01T03:28:37;8.37;;;2.47;;
10432;SDS011;5263;48.680;9.004;2023-06-01T03:31:03;7.77;;;2.43;;
10432;SDS011;5263;48.680;9.004;2023-06-01T03:33:29;7.53;;;2.40;;
10432;SDS011;5263;48.680;9.004;2023-06-01T03:35:55;5.57;;;2.17;;
10432;SDS011;5263;48.680;9.004;2023-06-01T03:38:21;3.00;;;2.30;;
10432;SDS011;5263;48.680;9.004;2023-06-01T03:40:47;3.40;;;1.90;;
10432;SDS011;5263;48.680;9.004;2023-06-01T03:43:12;2.23;;;2.00;;
10432;SDS011;5263;48.680;9.004;2023-06-01T03:45:38;5.97;;;2.07;;
10432;SDS011;5263;48.680;9.004;2023-06-01T03:48:04;7.93;;;2.27;;
10432;SDS011;5263;48.680;9.004;2023-06-01T03:50:30;5.37;;;2.17;;
10432;SDS011;5263;48.680;9.004;2023-06-01T03:52:55;3.63;;;1.67;;
10432;SDS011;5263;48.680;9.004;2023-06-01T03:55:21;5.30;;;2.63;;
10432;SDS011;5263;48.680;9.004;2023-06-01T03:57:47;8.87;;;2.80;;
10432;SDS011;5263;48.680;9.004;2023-06-01T04:00:13;3.83;;;2.43;;
10432;SDS011;5263;48.680;9.004;2023-06-01T04:02:55;4.80;;;2.47;;
10432;SDS011;5263;48.680;9.004;2023-06-01T04:05:25;3.13;;;2.53;;
10432;SDS011;5263;48.680;9.004;2023-06-01T04:07:52;7.43;;;2.27;;
10432;SDS011;5263;48.680;9.004;2023-06-01T04:10:19;5.37;;;2.63;;
10432;SDS011;5263;48.680;9.004;2023-06-01T04:12:47;4.47;;;2.53;;
10432;SDS011;5263;48.680;9.004;2023-06-01T04:15:17;4.97;;;3.10;;
10432;SDS011;5263;48.680;9.004;2023-06-01T04:17:43;10.53;;;3.33;;
10432;SDS011;5263;48.680;9.004;2023-06-01T04:20:13;3.80;;;2.70;;
10432;SDS011;5263;48.680;9.004;2023-06-01T04:22:40;4.67;;;2.30;;
10432;SDS011;5263;48.680;9.004;2023-06-01T04:25:08;4.43;;;2.67;;
10432;SDS011;5263;48.680;9.004;2023-06-01T04:27:36;5.47;;;2.60;;
10432;SDS011;5263;48.680;9.004;2023-06-01T04:30:09;10.90;;;2.87;;
10432;SDS011;5263;48.680;9.004;2023-06-01T04:32:36;3.77;;;1.77;;
10432;SDS011;5263;48.680;9.004;2023-06-01T04:35:05;3.53;;;2.40;;
10432;SDS011;5263;48.680;9.004;2023-06-01T04:37:36;3.00;;;1.90;;
10432;SDS011;5263;48.680;9.004;2023-06-01T04:40:04;7.83;;;2.00;;
10432;SDS011;5263;48.680;9.004;2023-06-01T04:42:41;2.20;;;2.00;;
10432;SDS011;5263;48.680;9.004;2023-06-01T04:45:11;2.73;;;1.83;;
10432;SDS011;5263;48.680;9.004;2023-06-01T04:47:38;4.93;;;2.63;;
10432;SDS011;5263;48.680;9.004;2023-06-01T04:50:07;5.20;;;2.20;;
10432;SDS011;5263;48.680;9.004;2023-06-01T04:52:38;2.00;;;1.80;;
10432;SDS011;5263;48.680;9.004;2023-06-01T04:55:04;5.70;;;2.07;;
10432;SDS011;5263;48.680;9.004;2023-06-01T04:57:31;2.70;;;1.73;;
10432;SDS011;5263;48.680;9.004;2023-06-01T05:00:09;2.67;;;1.70;;
10432;SDS011;5263;48.680;9.004;2023-06-01T05:02:37;12.07;;;2.90;;
10432;SDS011;5263;48.680;9.004;2023-06-01T05:05:04;5.53;;;2.10;;
10432;SDS011;5263;48.680;9.004;2023-06-01T05:07:30;6.83;;;1.90;;
10432;SDS011;5263;48.680;9.004;2023-06-01T05:09:56;5.07;;;2.20;;
10432;SDS011;5263;48.680;9.004;2023-06-01T05:12:22;4.17;;;2.03;;
10432;SDS011;5263;48.680;9.004;2023-06-01T05:14:48;5.80;;;2.27;;
10432;SDS011;5263;48.680;9.004;2023-06-01T05:17:13;5.07;;;2.83;;
10432;SDS011;5263;48.680;9.004;2023-06-01T05:19:39;4.47;;;2.33;;
10432;SDS011;5263;48.680;9.004;2023-06-01T05:22:04;5.03;;;2.63;;
10432;SDS011;5263;48.680;9.004;2023-06-01T05:24:37;3.37;;;2.20;;
10432;SDS011;5263;48.680;9.004;2023-06-01T05:27:03;5.97;;;2.67;;
10432;SDS011;5263;48.680;9.004;2023-06-01T05:29:29;4.90;;;2.27;;
10432;SDS011;5263;48.680;9.004;2023-06-01T05:31:55;8.07;;;2.00;;
10432;SDS011;5263;48.680;9.004;2023-06-01T05:34:20;5.07;;;2.03;;
10432;SDS011;5263;48.680;9.004;2023-06-01T05:36:47;5.10;;;1.83;;
10432;SDS011;5263;48.680;9.004;2023-06-01T05:39:13;5.60;;;1.70;;
10432;SDS011;5263;48.680;9.004;2023-06-01T05:41:40;5.13;;;1.63;;
10432;SDS011;5263;48.680;9.004;2023-06-01T05:44:06;4.87;;;1.83;;
10432;SDS011;5263;48.680;9.004;2023-06-01T05:46:32;4.43;;;1.70;;
10432;SDS011;5263;48.680;9.004;2023-06-01T05:48:57;5.33;;;1.90;;
10432;SDS011;5263;48.680;9.004;2023-06-01T05:51:23;4.80;;;1.60;;
10432;SDS011;5263;48.680;9.004;2023-06-01T05:53:48;8.03;;;2.10;;
10432;SDS011;5263;48.680;9.004;2023-06-01T05:56:14;13.63;;;2.57;;
10432;SDS011;5263;48.680;9.004;2023-06-01T05:58:41;4.63;;;2.37;;
10432;SDS011;5263;48.680;9.004;2023-06-01T06:01:07;9.33;;;2.30;;
10432;SDS011;5263;48.680;9.004;2023-06-01T06:03:32;9.33;;;1.83;;
10432;SDS011;5263;48.680;9.004;2023-06-01T06:05:59;12.27;;;2.13;;
10432;SDS011;5263;48.680;9.004;2023-06-01T06:08:25;7.13;;;2.10;;
10432;SDS011;5263;48.680;9.004;2023-06-01T06:10:51;2.20;;;1.70;;
10432;SDS011;5263;48.680;9.004;2023-06-01T06:13:16;5.53;;;2.43;;
10432;SDS011;5263;48.680;9.004;2023-06-01T06:15:42;10.07;;;2.53;;
10432;SDS011;5263;48.680;9.004;2023-06-01T06:18:07;3.63;;;1.57;;
10432;SDS011;5263;48.680;9.004;2023-06-01T06:20:33;9.97;;;1.97;;
10432;SDS011;5263;48.680;9.004;2023-06-01T06:22:59;8.63;;;2.30;;
10432;SDS011;5263;48.680;9.004;2023-06-01T06:25:24;6.57;;;2.47;;
10432;SDS011;5263;48.680;9.004;2023-06-01T06:27:50;8.23;;;2.27;;
10432;SDS011;5263;48.680;9.004;2023-06-01T06:30:15;6.57;;;2.20;;
10432;SDS011;5263;48.680;9.004;2023-06-01T06:32:41;4.70;;;2.00;;
10432;SDS011;5263;48.680;9.004;2023-06-01T06:35:08;6.07;;;1.90;;
10432;SDS011;5263;48.680;9.004;2023-06-01T06:37:37;5.53;;;2.50;;
10432;SDS011;5263;48.680;9.004;2023-06-01T06:40:07;7.60;;;2.30;;
10432;SDS011;5263;48.680;9.004;2023-06-01T06:42:33;5.80;;;2.03;;
10432;SDS011;5263;48.680;9.004;2023-06-01T06:44:58;6.70;;;1.93;;
10432;SDS011;5263;48.680;9.004;2023-06-01T06:47:24;5.83;;;2.23;;
10432;SDS011;5263;48.680;9.004;2023-06-01T06:49:50;5.00;;;2.13;;
10432;SDS011;5263;48.680;9.004;2023-06-01T06:52:17;5.63;;;2.20;;
10432;SDS011;5263;48.680;9.004;2023-06-01T06:54:42;10.73;;;3.00;;
10432;SDS011;5263;48.680;9.004;2023-06-01T06:57:08;9.97;;;2.47;;
10432;SDS011;5263;48.680;9.004;2023-06-01T06:59:35;4.03;;;2.50;;
10432;SDS011;5263;48.680;9.004;2023-06-01T07:02:01;6.17;;;2.60;;
10432;SDS011;5263;48.680;9.004;2023-06-01T07:04:28;4.53;;;2.27;;
10432;SDS011;5263;48.680;9.004;2023-06-01T07:06:54;5.00;;;1.83;;
10432;SDS011;5263;48.680;9.004;2023-06-01T07:09:20;7.73;;;2.47;;
10432;SDS011;5263;48.680;9.004;2023-06-01T07:11:46;10.97;;;2.93;;
10432;SDS011;5263;48.680;9.004;2023-06-01T07:14:12;6.33;;;2.80;;
10432;SDS011;5263;48.680;9.004;2023-06-01T07:16:38;4.17;;;2.50;;
10432;SDS011;5263;48.680;9.004;2023-06-01T07:19:04;5.60;;;1.83;;
10432;SDS011;5263;48.680;9.004;2023-06-01T07:21:30;3.20;;;2.10;;
10432;SDS011;5263;48.680;9.004;2023-06-01T07:23:55;7.43;;;2.43;;
10432;SDS011;5263;48.680;9.004;2023-06-01T07:26:21;5.10;;;2.63;;
10432;SDS011;5263;48.680;9.004;2023-06-01T07:28:50;6.70;;;2.50;;
10432;SDS011;5263;48.680;9.004;2023-06-01T07:31:18;3.50;;;2.30;;
10432;SDS011;5263;48.680;9.004;2023-06-01T07:33:47;4.60;;;2.33;;
10432;SDS011;5263;48.680;9.004;2023-06-01T07:36:12;6.80;;;2.47;;
10432;SDS011;5263;48.680;9.004;2023-06-01T07:38:39;4.20;;;2.37;;
10432;SDS011;5263;48.680;9.004;2023-06-01T07:41:05;3.87;;;2.00;;
10432;SDS011;5263;48.680;9.004;2023-06-01T07:43:38;5.73;;;1.90;;
10432;SDS011;5263;48.680;9.004;2023-06-01T07:46:03;3.73;;;2.00;;
10432;SDS011;5263;48.680;9.004;2023-06-01T07:48:29;4.93;;;2.03;;
10432;SDS011;5263;48.680;9.004;2023-06-01T07:51:00;6.63;;;2.00;;
10432;SDS011;5263;48.680;9.004;2023-06-01T07:53:30;5.17;;;2.40;;
10432;SDS011;5263;48.680;9.004;2023-06-01T07:55:57;5.27;;;2.03;;
10432;SDS011;5263;48.680;9.004;2023-06-01T07:58:22;5.47;;;2.07;;
10432;SDS011;5263;48.680;9.004;2023-06-01T08:00:48;4.03;;;2.20;;
10432;SDS011;5263;48.680;9.004;2023-06-01T08:03:14;2.47;;;1.43;;
10432;SDS011;5263;48.680;9.004;2023-06-01T08:05:40;6.07;;;2.30;;
10432;SDS011;5263;48.680;9.004;2023-06-01T08:08:07;4.50;;;1.87;;
10432;SDS011;5263;48.680;9.004;2023-06-01T08:10:33;5.93;;;2.67;;
10432;SDS011;5263;48.680;9.004;2023-06-01T08:12:59;2.00;;;1.80;;
10432;SDS011;5263;48.680;9.004;2023-06-01T08:15:25;3.53;;;2.00;;
10432;SDS011;5263;48.680;9.004;2023-06-01T08:17:51;2.73;;;1.53;;
10432;SDS011;5263;48.680;9.004;2023-06-01T08:20:17;5.37;;;2.50;;
10432;SDS011;5263;48.680;9.004;2023-06-01T08:22:50;3.07;;;2.03;;
10432;SDS011;5263;48.680;9.004;2023-06-01T08:25:16;7.23;;;2.27;;
10432;SDS011;5263;48.680;9.004;2023-06-01T08:27:43;3.93;;;2.73;;
10432;SDS011;5263;48.680;9.004;2023-06-01T08:30:09;4.43;;;2.27;;
10432;SDS011;5263;48.680;9.004;2023-06-01T08:32:36;5.10;;;2.67;;
10432;SDS011;5263;48.680;9.004;2023-06-01T08:35:01;5.27;;;1.93;;
10432;SDS011;5263;48.680;9.004;2023-06-01T08:37:27;3.83;;;2.10;;
10432;SDS011;5263;48.680;9.004;2023-06-01T08:39:54;5.63;;;2.37;;
10432;SDS011;5263;48.680;9.004;2023-06-01T08:42:29;2.60;;;2.40;;
10432;SDS011;5263;48.680;9.004;2023-06-01T08:44:58;4.50;;;2.10;;
10432;SDS011;5263;48.680;9.004;2023-06-01T08:47:27;3.83;;;2.47;;
10432;SDS011;5263;48.680;9.004;2023-06-01T08:49:53;3.83;;;2.13;;
10432;SDS011;5263;48.680;9.004;2023-06-01T08:52:23;6.87;;;2.50;;
10432;SDS011;5263;48.680;9.004;2023-06-01T08:54:53;5.30;;;2.87;;
10432;SDS011;5263;48.680;9.004;2023-06-01T08:57:19;6.77;;;2.33;;
10432;SDS011;5263;48.680;9.004;2023-06-01T08:59:45;3.27;;;2.20;;
10432;SDS011;5263;48.680;9.004;2023-06-01T09:02:11;5.23;;;2.80;;
10432;SDS011;5263;48.680;9.004;2023-06-01T09:04:39;4.40;;;2.10;;
10432;SDS011;5263;48.680;9.004;2023-06-01T09:07:07;4.77;;;2.63;;
10432;SDS011;5263;48.680;9.004;2023-06-01T09:09:33;6.27;;;2.60;;
10432;SDS011;5263;48.680;9.004;2023-06-01T09:14:43;9.07;;;2.70;;
10432;SDS011;5263;48.680;9.004;2023-06-01T09:17:13;3.70;;;2.83;;
10432;SDS011;5263;48.680;9.004;2023-06-01T09:19:43;4.07;;;2.27;;
10432;SDS011;5263;48.680;9.004;2023-06-01T09:22:09;5.93;;;2.77;;
10432;SDS011;5263;48.680;9.004;2023-06-01T09:24:36;4.87;;;3.00;;
10432;SDS011;5263;48.680;9.004;2023-06-01T09:27:01;7.43;;;2.77;;
10432;SDS011;5263;48.680;9.004;2023-06-01T09:29:27;3.63;;;2.97;;
10432;SDS011;5263;48.680;9.004;2023-06-01T09:31:53;6.63;;;2.80;;
10432;SDS011;5263;48.680;9.004;2023-06-01T09:34:19;4.93;;;2.73;;
10432;SDS011;5263;48.680;9.004;2023-06-01T09:36:46;5.63;;;3.43;;
10432;SDS011;5263;48.680;9.004;2023-06-01T09:39:16;4.63;;;2.57;;
10432;SDS011;5263;48.680;9.004;2023-06-01T09:41:52;5.03;;;3.17;;
10432;SDS011;5263;48.680;9.004;2023-06-01T09:46:48;9.27;;;4.10;;
10432;SDS011;5263;48.680;9.004;2023-06-01T09:49:22;5.90;;;2.87;;
10432;SDS011;5263;48.680;9.004;2023-06-01T09:51:52;4.73;;;3.07;;
10432;SDS011;5263;48.680;9.004;2023-06-01T09:54:33;3.97;;;2.83;;
10432;SDS011;5263;48.680;9.004;2023-06-01T09:57:03;5.23;;;2.70;;
10432;SDS011;5263;48.680;9.004;2023-06-01T09:59:30;6.00;;;2.27;;
10432;SDS011;5263;48.680;9.004;2023-06-01T10:02:15;3.67;;;2.53;;
10432;SDS011;5263;48.680;9.004;2023-06-01T10:04:53;5.80;;;3.30;;
10432;SDS011;5263;48.680;9.004;2023-06-01T10:07:21;6.30;;;3.07;;
10432;SDS011;5263;48.680;9.004;2023-06-01T10:09:48;3.67;;;2.90;;
10432;SDS011;5263;48.680;9.004;2023-06-01T10:12:16;5.80;;;3.03;;
10432;SDS011;5263;48.680;9.004;2023-06-01T10:14:42;3.60;;;3.30;;
10432;SDS011;5263;48.680;9.004;2023-06-01T10:17:07;9.40;;;3.20;;
10432;SDS011;5263;48.680;9.004;2023-06-01T10:19:35;4.50;;;2.70;;
10432;SDS011;5263;48.680;9.004;2023-06-01T10:22:03;4.77;;;3.27;;
10432;SDS011;5263;48.680;9.004;2023-06-01T10:24:29;7.03;;;3.27;;
10432;SDS011;5263;48.680;9.004;2023-06-01T10:29:45;4.00;;;2.70;;
10432;SDS011;5263;48.680;9.004;2023-06-01T10:35:06;4.50;;;2.73;;
10432;SDS011;5263;48.680;9.004;2023-06-01T10:37:32;3.17;;;2.67;;
10432;SDS011;5263;48.680;9.004;2023-06-01T10:42:40;4.07;;;2.90;;
10432;SDS011;5263;48.680;9.004;2023-06-01T10:45:06;3.72;;;2.13;;
10432;SDS011;5263;48.680;9.004;2023-06-01T10:55:37;2.28;;;2.00;;
10432;SDS011;5263;48.680;9.004;2023-06-01T10:57:42;7.00;;;3.22;;
10432;SDS011;5263;48.680;9.004;2023-06-01T11:00:25;5.05;;;2.70;;
10432;SDS011;5263;48.680;9.004;2023-06-01T11:02:52;5.20;;;2.67;;
10432;SDS011;5263;48.680;9.004;2023-06-01T11:13:34;5.63;;;2.75;;
10432;SDS011;5263;48.680;9.004;2023-06-01T11:21:27;7.07;;;3.28;;
10432;SDS011;5263;48.680;9.004;2023-06-01T11:24:01;5.43;;;3.20;;
10432;SDS011;5263;48.680;9.004;2023-06-01T11:26:31;3.30;;;3.08;;
10432;SDS011;5263;48.680;9.004;2023-06-01T11:29:10;4.20;;;2.67;;
10432;SDS011;5263;48.680;9.004;2023-06-01T11:31:42;3.75;;;2.85;;
10432;SDS011;5263;48.680;9.004;2023-06-01T11:34:09;5.22;;;2.90;;
10432;SDS011;5263;48.680;9.004;2023-06-01T11:36:37;5.38;;;3.08;;
10432;SDS011;5263;48.680;9.004;2023-06-01T11:39:03;2.80;;;2.60;;
10432;SDS011;5263;48.680;9.004;2023-06-01T11:41:32;8.02;;;3.08;;
10432;SDS011;5263;48.680;9.004;2023-06-01T11:43:59;5.57;;;2.72;;
10432;SDS011;5263;48.680;9.004;2023-06-01T11:46:24;5.75;;;2.42;;
10432;SDS011;5263;48.680;9.004;2023-06-01T11:49:05;2.95;;;2.78;;
10432;SDS011;5263;48.680;9.004;2023-06-01T11:51:32;3.63;;;2.75;;
10432;SDS011;5263;48.680;9.004;2023-06-01T11:54:01;2.97;;;2.55;;
10432;SDS011;5263;48.680;9.004;2023-06-01T11:56:28;2.53;;;2.33;;
10432;SDS011;5263;48.680;9.004;2023-06-01T11:58:58;3.75;;;2.67;;
10432;SDS011;5263;48.680;9.004;2023-06-01T12:01:25;3.42;;;3.15;;
10432;SDS011;5263;48.680;9.004;2023-06-01T12:03:52;3.60;;;2.92;;
10432;SDS011;5263;48.680;9.004;2023-06-01T12:06:19;3.58;;;2.50;;
10432;SDS011;5263;48.680;9.004;2023-06-01T12:08:45;5.22;;;2.53;;
10432;SDS011;5263;48.680;9.004;2023-06-01T12:11:12;2.63;;;2.42;;
10432;SDS011;5263;48.680;9.004;2023-06-01T12:13:41;3.75;;;2.33;;
10432;SDS011;5263;48.680;9.004;2023-06-01T12:16:07;2.80;;;2.67;;
10432;SDS011;5263;48.680;9.004;2023-06-01T12:18:33;4.28;;;2.90;;
10432;SDS011;5263;48.680;9.004;2023-06-01T12:20:58;3.38;;;2.53;;
10432;SDS011;5263;48.680;9.004;2023-06-01T12:23:24;4.15;;;2.95;;
10432;SDS011;5263;48.680;9.004;2023-06-01T12:25:54;4.65;;;2.67;;
10432;SDS011;5263;48.680;9.004;2023-06-01T12:28:24;4.18;;;2.60;;
10432;SDS011;5263;48.680;9.004;2023-06-01T12:31:09;4.55;;;3.10;;
10432;SDS011;5263;48.680;9.004;2023-06-01T12:33:37;3.17;;;2.58;;
10432;SDS011;5263;48.680;9.004;2023-06-01T12:36:04;4.20;;;2.10;;
10432;SDS011;5263;48.680;9.004;2023-06-01T12:38:35;2.40;;;2.20;;
10432;SDS011;5263;48.680;9.004;2023-06-01T12:41:16;3.40;;;2.38;;
10432;SDS011;5263;48.680;9.004;2023-06-01T12:43:47;5.68;;;2.30;;
10432;SDS011;5263;48.680;9.004;2023-06-01T12:48:44;4.50;;;2.83;;
10432;SDS011;5263;48.680;9.004;2023-06-01T12:51:11;4.28;;;2.95;;
10432;SDS011;5263;48.680;9.004;2023-06-01T12:53:38;6.05;;;3.28;;
10432;SDS011;5263;48.680;9.004;2023-06-01T12:56:04;3.13;;;2.83;;
10432;SDS011;5263;48.680;9.004;2023-06-01T12:58:31;2.97;;;2.78;;
10432;SDS011;5263;48.680;9.004;2023-06-01T13:00:57;4.65;;;2.92;;
10432;SDS011;5263;48.680;9.004;2023-06-01T13:03:22;5.10;;;2.90;;
10432;SDS011;5263;48.680;9.004;2023-06-01T13:05:49;7.53;;;3.55;;
10432;SDS011;5263;48.680;9.004;2023-06-01T13:08:18;10.68;;;3.60;;
10432;SDS011;5263;48.680;9.004;2023-06-01T13:10:45;4.80;;;3.38;;
10432;SDS011;5263;48.680;9.004;2023-06-01T13:13:11;4.28;;;3.60;;
10432;SDS011;5263;48.680;9.004;2023-06-01T13:15:40;3.38;;;2.83;;
10432;SDS011;5263;48.680;9.004;2023-06-01T13:18:13;4.22;;;2.92;;
10432;SDS011;5263;48.680;9.004;2023-06-01T13:20:39;5.10;;;3.20;;
10432;SDS011;5263;48.680;9.004;2023-06-01T13:23:05;3.42;;;3.13;;
10432;SDS011;5263;48.680;9.004;2023-06-01T13:25:31;8.52;;;2.97;;
10432;SDS011;5263;48.680;9.004;2023-06-01T13:27:58;4.22;;;2.88;;
10432;SDS011;5263;48.680;9.004;2023-06-01T13:30:24;2.85;;;2.60;;
10432;SDS011;5263;48.680;9.004;2023-06-01T13:32:49;3.30;;;3.00;;
10432;SDS011;5263;48.680;9.004;2023-06-01T13:35:15;4.25;;;3.05;;
10432;SDS011;5263;48.680;9.004;2023-06-01T13:37:41;3.45;;;3.08;;
10432;SDS011;5263;48.680;9.004;2023-06-01T13:40:06;3.08;;;2.83;;
10432;SDS011;5263;48.680;9.004;2023-06-01T13:42:32;3.63;;;3.33;;
10432;SDS011;5263;48.680;9.004;2023-06-01T13:44:58;6.35;;;2.33;;
10432;SDS011;5263;48.680;9.004;2023-06-01T13:47:24;3.58;;;3.25;;
10432;SDS011;5263;48.680;9.004;2023-06-01T13:49:50;3.85;;;2.50;;
10432;SDS011;5263;48.680;9.004;2023-06-01T13:52:17;5.15;;;2.53;;
10432;SDS011;5263;48.680;9.004;2023-06-01T13:54:43;5.38;;;2.78;;
10432;SDS011;5263;48.680;9.004;2023-06-01T13:57:09;2.85;;;2.65;;
10432;SDS011;5263;48.680;9.004;2023-06-01T13:59:36;3.67;;;2.78;;
10432;SDS011;5263;48.680;9.004;2023-06-01T14:02:02;6.07;;;3.78;;
10432;SDS011;5263;48.680;9.004;2023-06-01T14:04:29;2.85;;;2.65;;
10432;SDS011;5263;48.680;9.004;2023-06-01T14:06:55;3.55;;;3.20;;
10432;SDS011;5263;48.680;9.004;2023-06-01T14:09:21;5.70;;;3.45;;
10432;SDS011;5263;48.680;9.004;2023-06-01T14:11:47;4.85;;;3.10;;
10432;SDS011;5263;48.680;9.004;2023-06-01T14:14:13;3.10;;;2.80;;
10432;SDS011;5263;48.680;9.004;2023-06-01T14:16:39;6.80;;;3.38;;
10432;SDS011;5263;48.680;9.004;2023-06-01T14:19:05;8.40;;;3.97;;
10432;SDS011;5263;48.680;9.004;2023-06-01T14:21:30;4.80;;;2.35;;
10432;SDS011;5263;48.680;9.004;2023-06-01T14:23:57;3.92;;;2.45;;
10432;SDS011;5263;48.680;9.004;2023-06-01T14:26:23;4.88;;;2.70;;
10432;SDS011;5263;48.680;9.004;2023-06-01T14:28:49;3.22;;;2.20;;
10432;SDS011;5263;48.680;9.004;2023-06-01T14:31:15;6.57;;;2.88;;
10432;SDS011;5263;48.680;9.004;2023-06-01T14:33:40;4.85;;;2.58;;
10432;SDS011;5263;48.680;9.004;2023-06-01T14:36:06;2.33;;;2.13;;
10432;SDS011;5263;48.680;9.004;2023-06-01T14:38:31;2.97;;;2.47;;
10432;SDS011;5263;48.680;9.004;2023-06-01T14:40:57;10.85;;;3.38;;
10432;SDS011;5263;48.680;9.004;2023-06-01T14:43:23;6.57;;;2.50;;
10432;SDS011;5263;48.680;9.004;2023-06-01T14:45:49;5.78;;;2.55;;
10432;SDS011;5263;48.680;9.004;2023-06-01T14:48:14;3.95;;;2.65;;
10432;SDS011;5263;48.680;9.004;2023-06-01T14:50:40;3.22;;;2.22;;
10432;SDS011;5263;48.680;9.004;2023-06-01T14:53:06;3.17;;;2.28;;
10432;SDS011;5263;48.680;9.004;2023-06-01T14:55:32;2.97;;;2.15;;
10432;SDS011;5263;48.680;9.004;2023-06-01T14:57:58;3.83;;;2.55;;
10432;SDS011;5263;48.680;9.004;2023-06-01T15:00:24;6.30;;;2.08;;
10432;SDS011;5263;48.680;9.004;2023-06-01T15:02:50;2.60;;;2.00;;
10432;SDS011;5263;48.680;9.004;2023-06-01T15:05:15;5.47;;;2.33;;
10432;SDS011;5263;48.680;9.004;2023-06-01T15:07:41;4.20;;;1.88;;
10432;SDS011;5263;48.680;9.004;2023-06-01T15:10:08;5.32;;;2.00;;
10432;SDS011;5263;48.680;9.004;2023-06-01T15:12:35;3.33;;;2.45;;
10432;SDS011;5263;48.680;9.004;2023-06-01T15:15:01;5.47;;;1.80;;
10432;SDS011;5263;48.680;9.004;2023-06-01T15:17:27;3.55;;;1.85;;
10432;SDS011;5263;48.680;9.004;2023-06-01T15:19:52;7.10;;;2.00;;
10432;SDS011;5263;48.680;9.004;2023-06-01T15:22:18;8.43;;;1.47;;
10432;SDS011;5263;48.680;9.004;2023-06-01T15:24:43;7.73;;;2.40;;
10432;SDS011;5263;48.680;9.004;2023-06-01T15:27:09;7.20;;;2.20;;
10432;SDS011;5263;48.680;9.004;2023-06-01T15:29:35;1.70;;;1.60;;
10432;SDS011;5263;48.680;9.004;2023-06-01T15:32:01;5.77;;;1.80;;
10432;SDS011;5263;48.680;9.004;2023-06-01T15:34:26;3.57;;;2.40;;
10432;SDS011;5263;48.680;9.004;2023-06-01T15:36:52;2.87;;;1.67;;
10432;SDS011;5263;48.680;9.004;2023-06-01T15:39:18;5.53;;;1.87;;
10432;SDS011;5263;48.680;9.004;2023-06-01T15:41:43;2.27;;;1.97;;
10432;SDS011;5263;48.680;9.004;2023-06-01T15:44:09;1.70;;;1.60;;
10432;SDS011;5263;48.680;9.004;2023-06-01T15:46:35;3.60;;;1.37;;
10432;SDS011;5263;48.680;9.004;2023-06-01T15:49:04;8.13;;;1.83;;
10432;SDS011;5263;48.680;9.004;2023-06-01T15:51:33;4.03;;;1.30;;
10432;SDS011;5263;48.680;9.004;2023-06-01T15:53:58;5.43;;;2.00;;
10432;SDS011;5263;48.680;9.004;2023-06-01T15:56:24;7.60;;;1.50;;